Time;durP1;ratioP1;P1;durP2;ratioP2;P2;SDS_P1;SDS_P2;PMS_P1;PMS_P2;Temp;Humidity;BMP_temperature;BMP_pressure;BME280_temperature;BME280_humidity;BME280_pressure;Samples;Min_cycle;Max_cycle;Signal;HPM_P1;HPM_P2
2023/04/02 00:01:30;;;;;;;26.33;10.73;;;;;;;1.00;100.00;101373.56;7392150;19;20205;-48
2023/04/02 00:04:20;;;;;;;21.45;4.70;;;;;;;0.85;100.00;101384.13;7396142;19;20407;-50
2023/04/02 00:07:29;;;;;;;20.57;7.37;;;;;;;0.93;100.00;101393.34;7388484;19;20204;-49
2023/04/02 00:09:59;;;;;;;6.75;1.85;;;;;;;0.90;100.00;101395.63;7394617;19;20451;-48
2023/04/02 00:12:28;;;;;;;6.67;3.17;;;;;;;1.06;100.00;101399.53;7396220;19;20194;-47
2023/04/02 00:15:00;;;;;;;30.42;9.93;;;;;;;1.06;100.00;101408.06;7392282;19;20781;-47
2023/04/02 00:17:30;;;;;;;21.17;7.72;;;;;;;0.99;100.00;101398.09;7394935;19;20150;-52
2023/04/02 00:20:03;;;;;;;19.75;8.23;;;;;;;0.94;100.00;101410.38;7394439;19;20134;-47
2023/04/02 00:22:33;;;;;;;11.70;2.50;;;;;;;1.00;100.00;101415.13;7395879;19;20178;-49
2023/04/02 00:25:09;;;;;;;10.53;3.47;;;;;;;0.90;100.00;101415.94;7392506;19;20411;-49
2023/04/02 00:27:39;;;;;;;11.90;4.13;;;;;;;1.01;100.00;101422.00;7395597;19;20741;-46
2023/04/02 00:30:14;;;;;;;17.90;5.00;;;;;;;1.00;100.00;101417.69;7391602;19;20687;-51
2023/04/02 00:32:44;;;;;;;21.40;9.02;;;;;;;1.12;100.00;101417.88;7395112;19;20438;-48
2023/04/02 00:35:18;;;;;;;11.63;3.77;;;;;;;1.00;100.00;101425.31;7390733;19;20285;-50
2023/04/02 00:37:48;;;;;;;16.77;3.37;;;;;;;0.88;100.00;101429.25;7394621;19;20935;-49
2023/04/02 00:40:22;;;;;;;15.98;5.55;;;;;;;0.89;100.00;101443.75;7392219;19;20421;-48
2023/04/02 00:42:52;;;;;;;25.17;10.70;;;;;;;0.88;100.00;101450.47;7396807;19;20146;-51
2023/04/02 00:45:28;;;;;;;56.63;21.98;;;;;;;0.93;100.00;101448.38;7391709;19;20205;-47
2023/04/02 00:47:59;;;;;;;40.10;16.13;;;;;;;0.87;100.00;101453.75;7394330;19;20138;-48
2023/04/02 00:50:32;;;;;;;12.00;2.47;;;;;;;0.99;100.00;101465.81;7384425;19;20898;-48
2023/04/02 00:53:06;;;;;;;23.23;7.68;;;;;;;1.00;100.00;101468.50;7397022;19;20143;-47
2023/04/02 00:55:38;;;;;;;9.87;4.07;;;;;;;0.93;100.00;101463.63;7390079;19;20194;-48
2023/04/02 00:58:16;;;;;;;35.60;13.37;;;;;;;0.93;100.00;101479.75;7396445;19;20404;-47
2023/04/02 01:00:53;;;;;;;10.10;3.87;;;;;;;0.88;100.00;101485.16;7390940;19;20842;-47
2023/04/02 01:03:35;;;;;;;13.60;4.37;;;;;;;0.87;100.00;101493.53;7396943;19;20401;-52
2023/04/02 01:06:10;;;;;;;26.95;10.45;;;;;;;0.98;100.00;101492.00;7391347;19;20437;-48
2023/04/02 01:08:54;;;;;;;14.13;5.17;;;;;;;1.03;100.00;101489.09;7393860;19;20187;-48
2023/04/02 01:11:49;;;;;;;17.85;5.28;;;;;;;0.97;100.00;101495.28;7391755;19;20478;-48
2023/04/02 01:14:22;;;;;;;15.40;4.47;;;;;;;0.96;100.00;101499.47;7393263;19;20158;-48
2023/04/02 01:17:00;;;;;;;16.70;6.37;;;;;;;0.99;100.00;101504.84;7391758;19;20499;-51
2023/04/02 01:19:57;;;;;;;8.17;1.93;;;;;;;1.00;100.00;101501.53;7395353;19;20387;-51
2023/04/02 01:22:29;;;;;;;12.13;5.80;;;;;;;1.00;100.00;101505.72;7391055;19;20474;-47
2023/04/02 01:24:59;;;;;;;12.98;5.30;;;;;;;0.98;100.00;101525.94;7390427;19;20561;-49
2023/04/02 01:27:31;;;;;;;10.68;3.42;;;;;;;1.07;100.00;101518.25;7393846;19;20150;-46
2023/04/02 01:30:06;;;;;;;16.53;3.17;;;;;;;1.04;100.00;101534.09;7390873;19;20158;-48
2023/04/02 01:32:36;;;;;;;18.57;6.83;;;;;;;0.97;100.00;101541.03;7392891;19;20835;-49
2023/04/02 01:35:07;;;;;;;7.20;2.97;;;;;;;0.88;100.00;101531.78;7387914;19;20396;-51
2023/04/02 01:37:39;;;;;;;39.43;13.67;;;;;;;1.05;100.00;101540.09;7394854;19;20415;-47
2023/04/02 01:40:18;;;;;;;5.83;1.97;;;;;;;0.88;100.00;101541.06;7391358;19;20411;-50
2023/04/02 01:42:52;;;;;;;19.07;5.90;;;;;;;0.84;100.00;101534.81;7392215;19;20979;-49
2023/04/02 01:45:27;;;;;;;20.27;6.93;;;;;;;0.96;100.00;101541.78;7390174;19;20414;-48
2023/04/02 01:47:57;;;;;;;10.47;3.10;;;;;;;1.06;100.00;101537.69;7392907;19;20743;-46
2023/04/02 01:50:32;;;;;;;6.70;2.53;;;;;;;0.87;100.00;101542.69;7383812;19;20966;-47
2023/04/02 01:53:03;;;;;;;80.10;24.30;;;;;;;0.86;100.00;101548.53;7391808;19;20407;-48
2023/04/02 01:55:36;;;;;;;37.50;10.93;;;;;;;0.88;100.00;101559.72;7389724;19;20452;-50
2023/04/02 01:58:06;;;;;;;19.40;4.80;;;;;;;0.86;100.00;101558.72;7392064;19;20496;-50
2023/04/02 02:00:43;;;;;;;148.02;48.28;;;;;;;0.92;100.00;101560.94;7389955;19;20967;-48
2023/04/02 02:03:14;;;;;;;14.95;3.15;;;;;;;0.88;100.00;101557.19;7392991;19;20808;-47
2023/04/02 02:05:45;;;;;;;17.27;4.17;;;;;;;0.93;100.00;101560.19;7387879;19;20558;-48
2023/04/02 02:08:25;;;;;;;43.93;14.30;;;;;;;0.88;100.00;101574.97;7394183;19;20404;-50
2023/04/02 02:10:54;;;;;;;4.72;1.88;;;;;;;0.82;100.00;101564.25;7388580;19;20439;-50
2023/04/02 02:13:24;;;;;;;99.43;33.63;;;;;;;0.98;100.00;101558.06;7391752;19;20150;-46
2023/04/02 02:15:58;;;;;;;46.10;17.55;;;;;;;0.86;100.00;101571.41;7389713;19;20539;-47
2023/04/02 02:18:28;;;;;;;48.17;15.73;;;;;;;0.88;100.00;101576.66;7393009;19;20153;-50
2023/04/02 02:20:59;;;;;;;66.60;24.83;;;;;;;0.91;100.00;101575.28;7388147;19;20467;-49
2023/04/02 02:23:31;;;;;;;5.33;1.73;;;;;;;0.86;100.00;101583.25;7392374;19;20387;-50
2023/04/02 02:26:00;;;;;;;10.57;3.77;;;;;;;0.89;100.00;101578.44;7388689;19;20433;-48
2023/04/02 02:28:33;;;;;;;8.33;2.20;;;;;;;0.81;100.00;101582.78;7394117;19;21003;-47
2023/04/02 02:31:08;;;;;;;10.73;2.70;;;;;;;0.85;100.00;101582.34;7389423;19;20483;-49
2023/04/02 02:33:40;;;;;;;107.37;37.77;;;;;;;1.01;100.00;101589.75;7390645;19;20402;-47
2023/04/02 02:36:16;;;;;;;6.53;2.20;;;;;;;0.98;100.00;101583.50;7388225;19;20979;-46
2023/04/02 02:38:52;;;;;;;6.22;1.60;;;;;;;0.80;100.00;101601.31;7390543;19;20386;-49
2023/04/02 02:41:27;;;;;;;7.10;1.20;;;;;;;0.84;100.00;101603.41;7388800;19;20423;-48
2023/04/02 02:44:03;;;;;;;7.17;2.70;;;;;;;0.73;100.00;101604.03;7390888;19;20386;-50
2023/04/02 02:46:36;;;;;;;15.20;4.97;;;;;;;0.78;100.00;101610.47;7388438;19;20461;-48
2023/04/02 02:49:07;;;;;;;11.90;2.80;;;;;;;0.75;100.00;101611.06;7390797;19;20412;-48
2023/04/02 02:51:42;;;;;;;5.87;2.13;;;;;;;0.71;100.00;101620.78;7383947;19;20851;-49
2023/04/02 02:54:12;;;;;;;6.20;2.00;;;;;;;0.69;100.00;101625.72;7391168;19;20447;-47
2023/04/02 02:56:45;;;;;;;31.30;11.60;;;;;;;0.87;100.00;101616.41;7389406;19;20454;-49
2023/04/02 02:59:16;;;;;;;47.53;18.00;;;;;;;0.89;100.00;101609.84;7391098;19;20471;-51
2023/04/02 03:01:48;;;;;;;43.33;16.50;;;;;;;0.99;100.00;101610.69;7387734;19;20479;-47
2023/04/02 03:04:22;;;;;;;23.73;9.00;;;;;;;1.01;100.00;101616.81;7390561;19;20437;-50
2023/04/02 03:06:55;;;;;;;22.63;7.23;;;;;;;0.80;100.00;101608.94;7388876;19;20451;-49
2023/04/02 03:09:33;;;;;;;15.27;5.68;;;;;;;0.76;100.00;101617.94;7398098;19;20407;-49
2023/04/02 03:12:07;;;;;;;12.13;2.30;;;;;;;0.66;100.00;101617.78;7392876;19;20220;-49
2023/04/02 03:14:40;;;;;;;20.45;6.63;;;;;;;0.67;100.00;101630.66;7396117;19;20428;-45
2023/04/02 03:17:16;;;;;;;36.20;15.63;;;;;;;0.59;100.00;101638.28;7396255;19;20229;-47
2023/04/02 03:19:48;;;;;;;12.27;3.47;;;;;;;0.62;100.00;101636.91;7399942;19;20407;-49
2023/04/02 03:22:22;;;;;;;13.97;3.33;;;;;;;0.49;100.00;101656.81;7396051;19;20462;-49
2023/04/02 03:24:57;;;;;;;15.60;6.45;;;;;;;0.59;100.00;101654.41;7394812;19;20419;-49
2023/04/02 03:27:30;;;;;;;14.40;5.47;;;;;;;0.52;100.00;101664.75;7394933;19;20145;-48
2023/04/02 03:30:20;;;;;;;16.33;6.27;;;;;;;0.58;100.00;101665.34;7393939;19;20400;-50
2023/04/02 03:32:55;;;;;;;19.27;6.80;;;;;;;0.54;100.00;101678.47;7396309;19;20435;-45
2023/04/02 03:35:30;;;;;;;4.20;1.43;;;;;;;0.45;100.00;101680.13;7393585;19;20415;-46
2023/04/02 03:38:02;;;;;;;18.70;7.00;;;;;;;0.59;100.00;101679.81;7396009;19;20402;-47
2023/04/02 03:40:35;;;;;;;55.35;20.13;;;;;;;0.61;100.00;101682.53;7393324;19;20462;-48
2023/04/02 03:43:12;;;;;;;26.40;9.40;;;;;;;0.53;100.00;101675.03;7396330;19;20171;-50
2023/04/02 03:45:43;;;;;;;25.87;10.40;;;;;;;0.46;100.00;101681.94;7391892;19;20792;-46
2023/04/02 03:48:20;;;;;;;8.17;1.70;;;;;;;0.43;100.00;101686.69;7397945;19;20415;-47
2023/04/02 03:50:54;;;;;;;7.20;1.80;;;;;;;0.37;100.00;101698.03;7391557;19;20427;-46
2023/04/02 03:53:25;;;;;;;4.43;1.20;;;;;;;0.28;100.00;101692.06;7396125;19;20408;-47
2023/04/02 03:55:55;;;;;;;4.70;1.38;;;;;;;0.27;100.00;101697.91;7393008;19;20446;-49
2023/04/02 03:58:28;;;;;;;4.23;1.07;;;;;;;0.19;100.00;101711.44;7395619;19;20138;-49
2023/04/02 04:01:02;;;;;;;6.07;1.53;;;;;;;0.15;100.00;101715.31;7393412;19;20455;-49
2023/04/02 04:03:41;;;;;;;5.67;1.27;;;;;;;-0.04;100.00;101717.69;7395875;19;20426;-46
2023/04/02 04:06:12;;;;;;;5.30;1.50;;;;;;;-0.06;100.00;101714.13;7392343;19;20443;-49
2023/04/02 04:08:45;;;;;;;11.60;1.63;;;;;;;-0.10;100.00;101712.00;7396032;19;20139;-50
2023/04/02 04:11:18;;;;;;;4.05;1.35;;;;;;;-0.20;100.00;101715.25;7387188;19;20451;-50
2023/04/02 04:13:52;;;;;;;5.28;1.30;;;;;;;-0.22;100.00;101704.94;7395258;19;20142;-51
2023/04/02 04:16:25;;;;;;;6.88;1.60;;;;;;;-0.20;100.00;101703.47;7393996;19;20194;-47
2023/04/02 04:19:03;;;;;;;10.13;4.55;;;;;;;1.00;100.00;101683.63;7394688;19;20518;-50
2023/04/02 04:21:36;;;;;;;33.80;16.20;;;;;;;2.07;100.00;101654.41;7392448;19;20210;-49
2023/04/02 04:24:07;;;;;;;22.63;10.00;;;;;;;1.50;100.00;101650.13;7394274;19;20393;-47
2023/04/02 04:26:48;;;;;;;12.93;3.50;;;;;;;0.98;100.00;101669.91;7392086;19;20436;-48
2023/04/02 04:29:29;;;;;;;19.97;10.47;;;;;;;0.59;100.00;101689.97;7395179;19;20408;-50
2023/04/02 04:32:00;;;;;;;10.33;3.60;;;;;;;0.47;100.00;101702.38;7392346;19;20459;-50
2023/04/02 04:34:41;;;;;;;6.17;2.60;;;;;;;0.31;100.00;101715.19;7394988;19;20403;-48
2023/04/02 04:37:20;;;;;;;7.47;3.00;;;;;;;0.32;100.00;101713.56;7393410;19;21014;-49
2023/04/02 04:39:52;;;;;;;5.00;1.50;;;;;;;0.34;100.00;101717.16;7394151;19;20415;-48
2023/04/02 04:42:25;;;;;;;4.87;1.30;;;;;;;0.38;100.00;101727.78;7394435;19;20432;-51
2023/04/02 04:44:59;;;;;;;6.90;3.10;;;;;;;0.50;100.00;101729.72;7391993;19;20417;-48
2023/04/02 04:47:32;;;;;;;55.77;23.10;;;;;;;1.42;100.00;101711.34;7393706;19;20379;-46
2023/04/02 04:50:07;;;;;;;46.60;22.07;;;;;;;1.17;100.00;101729.38;7393761;19;20962;-50
2023/04/02 04:52:39;;;;;;;72.10;33.20;;;;;;;1.39;100.00;101735.59;7394797;19;20813;-49
2023/04/02 04:55:25;;;;;;;13.03;5.70;;;;;;;1.18;100.00;101743.88;7390821;19;20780;-47
2023/04/02 04:57:58;;;;;;;17.03;8.30;;;;;;;1.16;100.00;101754.63;7394928;19;20407;-49
2023/04/02 05:00:41;;;;;;;12.00;5.30;;;;;;;1.21;100.00;101769.59;7391916;19;20451;-48
2023/04/02 05:03:15;;;;;;;15.80;7.17;;;;;;;0.93;100.00;101789.78;7395161;19;20375;-49
2023/04/02 05:05:48;;;;;;;17.17;7.63;;;;;;;1.00;100.00;101790.38;7392223;19;20442;-47
2023/04/02 05:08:21;;;;;;;20.30;6.90;;;;;;;1.05;100.00;101800.28;7395760;19;20383;-48
2023/04/02 05:10:52;;;;;;;28.67;8.03;;;;;;;1.11;100.00;101806.69;7390858;19;20447;-47
2023/04/02 05:13:25;;;;;;;14.47;3.80;;;;;;;1.11;100.00;101816.84;7395996;19;20430;-47
2023/04/02 05:15:57;;;;;;;9.17;3.57;;;;;;;1.03;100.00;101822.09;7391259;19;20455;-47
2023/04/02 05:18:32;;;;;;;12.20;4.00;;;;;;;1.08;100.00;101820.03;7395957;19;20395;-47
2023/04/02 05:21:09;;;;;;;34.67;6.77;;;;;;;1.11;100.00;101833.00;7391843;19;20471;-51
2023/04/02 05:23:46;;;;;;;25.13;5.33;;;;;;;1.28;100.00;101833.75;7393818;19;20427;-47
2023/04/02 05:26:18;;;;;;;13.73;3.50;;;;;;;1.31;100.00;101846.75;7390273;19;20487;-47
2023/04/02 05:28:52;;;;;;;13.37;3.23;;;;;;;1.38;100.00;101848.25;7395298;19;20408;-50
2023/04/02 05:31:24;;;;;;;6.77;1.90;;;;;;;1.34;100.00;101865.75;7388752;19;20985;-49
2023/04/02 05:33:55;;;;;;;15.83;4.43;;;;;;;1.42;100.00;101871.59;7394780;19;20754;-46
2023/04/02 05:36:29;;;;;;;8.57;1.83;;;;;;;1.48;100.00;101874.72;7390625;19;20788;-47
2023/04/02 05:38:59;;;;;;;8.60;1.00;;;;;;;1.52;100.00;101875.91;7394125;19;20406;-50
2023/04/02 05:41:35;;;;;;;8.13;2.43;;;;;;;1.60;100.00;101880.06;7390227;19;20995;-51
2023/04/02 05:44:08;;;;;;;7.40;1.20;;;;;;;1.61;100.00;101886.06;7392593;19;20390;-50
2023/04/02 05:46:45;;;;;;;6.13;1.50;;;;;;;1.63;100.00;101884.56;7390701;19;20460;-46
2023/04/02 05:49:19;;;;;;;20.57;4.50;;;;;;;1.88;100.00;101884.38;7394441;19;20387;-49
2023/04/02 05:51:54;;;;;;;5.83;1.83;;;;;;;1.94;100.00;101901.91;7389304;19;20462;-47
2023/04/02 05:54:29;;;;;;;6.73;2.13;;;;;;;1.87;100.00;101900.41;7394343;19;20411;-54
2023/04/02 05:57:02;;;;;;;5.53;1.73;;;;;;;1.92;100.00;101893.19;7390239;19;21016;-50
2023/04/02 05:59:38;;;;;;;10.03;2.60;;;;;;;1.64;100.00;101916.00;7393017;19;20418;-50
2023/04/02 06:02:13;;;;;;;5.83;1.40;;;;;;;1.53;100.00;101927.69;7389818;19;20450;-49
2023/04/02 06:04:46;;;;;;;7.40;1.30;;;;;;;1.57;100.00;101929.78;7393450;19;20418;-53
2023/04/02 06:07:22;;;;;;;4.43;1.40;;;;;;;1.59;100.00;101939.34;7393549;19;20467;-49
2023/04/02 06:09:54;;;;;;;5.33;1.10;;;;;;;1.65;100.00;101941.63;7390676;19;20394;-48
2023/04/02 06:12:28;;;;;;;5.03;1.63;;;;;;;1.67;100.00;101946.81;7393532;19;20800;-46
2023/04/02 06:14:58;;;;;;;9.13;2.70;;;;;;;1.75;100.00;101957.00;7391871;19;20396;-55
2023/04/02 06:17:28;;;;;;;6.37;2.30;;;;;;;1.79;100.00;101962.41;7393430;19;20400;-55
2023/04/02 06:19:59;;;;;;;4.20;1.00;;;;;;;1.83;100.00;101965.38;7389921;19;20403;-54
2023/04/02 06:22:35;;;;;;;5.67;1.20;;;;;;;1.83;100.00;101974.66;7391700;19;20468;-54
2023/04/02 06:25:08;;;;;;;4.93;1.60;;;;;;;1.87;100.00;101981.84;7388699;19;20490;-57
2023/04/02 06:27:38;;;;;;;7.47;2.07;;;;;;;1.90;100.00;101984.72;7392970;19;20403;-54
2023/04/02 06:30:16;;;;;;;4.50;1.90;;;;;;;1.85;100.00;101991.00;7389296;19;20411;-54
2023/04/02 06:32:46;;;;;;;7.63;2.33;;;;;;;1.84;100.00;101991.75;7392197;19;20798;-53
2023/04/02 06:35:16;;;;;;;4.17;1.50;;;;;;;1.89;100.00;102005.78;7387997;19;20410;-56
2023/04/02 06:37:50;;;;;;;5.60;1.23;;;;;;;1.92;100.00;102002.66;7391465;19;20403;-56
2023/04/02 06:40:30;;;;;;;13.50;2.90;;;;;;;2.00;100.00;102022.13;7388330;19;20418;-51
2023/04/02 06:43:02;;;;;;;5.83;1.70;;;;;;;2.07;100.00;102019.44;7397210;19;20415;-54
2023/04/02 06:45:34;;;;;;;3.53;0.60;;;;;;;2.04;100.00;102033.50;7394598;19;20426;-55
2023/04/02 06:48:05;;;;;;;2.67;1.10;;;;;;;2.05;100.00;102038.72;7397545;19;20414;-52
2023/04/02 06:50:39;;;;;;;5.60;1.10;;;;;;;2.08;100.00;102044.13;7397454;19;20436;-54
2023/04/02 06:53:21;;;;;;;2.43;0.80;;;;;;;2.08;100.00;102048.31;7399363;19;20398;-55
2023/04/02 06:55:53;;;;;;;2.73;0.90;;;;;;;2.01;100.00;102057.03;7395679;19;20459;-55
2023/04/02 06:58:23;;;;;;;3.63;0.90;;;;;;;2.01;100.00;102055.34;7397909;19;20399;-57
2023/04/02 07:00:52;;;;;;;5.17;1.20;;;;;;;2.01;100.00;102055.34;7394093;19;20463;-56
2023/04/02 07:03:26;;;;;;;4.03;0.93;;;;;;;2.07;100.00;102062.72;7397138;19;20440;-56
2023/04/02 07:05:55;;;;;;;5.00;1.53;;;;;;;2.13;100.00;102059.84;7394082;19;20445;-54
2023/04/02 07:08:28;;;;;;;4.30;1.67;;;;;;;2.32;100.00;102064.19;7397688;19;20408;-55
2023/04/02 07:10:57;;;;;;;11.47;1.87;;;;;;;2.46;100.00;102076.56;7393111;19;20467;-55
2023/04/02 07:13:27;;;;;;;7.27;2.50;;;;;;;2.60;100.00;102084.66;7397307;19;20407;-53
2023/04/02 07:15:57;;;;;;;4.57;1.20;;;;;;;2.70;100.00;102080.59;7394725;19;20427;-55
2023/04/02 07:18:29;;;;;;;3.50;0.90;;;;;;;2.79;100.00;102088.22;7397431;19;20423;-55
2023/04/02 07:20:59;;;;;;;8.03;2.00;;;;;;;2.87;100.00;102098.22;7393360;19;20466;-57
2023/04/02 07:23:31;;;;;;;4.73;1.10;;;;;;;2.90;100.00;102107.06;7397548;19;20732;-56
2023/04/02 07:26:01;;;;;;;7.43;1.87;;;;;;;2.94;100.00;102114.25;7393029;19;20427;-56
2023/04/02 07:28:31;;;;;;;5.27;1.63;;;;;;;2.98;100.00;102123.09;7399288;19;20403;-56
2023/04/02 07:31:00;;;;;;;5.37;1.13;;;;;;;3.04;100.00;102130.41;7393474;19;20466;-52
2023/04/02 07:33:31;;;;;;;12.40;1.10;;;;;;;3.12;100.00;102126.91;7397149;19;20763;-54
2023/04/02 07:36:01;;;;;;;3.63;1.50;;;;;;;2.99;100.00;102142.72;7393004;19;20439;-58
2023/04/02 07:38:33;;;;;;;4.83;1.00;;;;;;;2.82;100.00;102149.66;7399203;19;20418;-56
2023/04/02 07:41:06;;;;;;;9.90;1.20;;;;;;;2.92;100.00;102153.13;7392164;19;20466;-57
2023/04/02 07:43:36;;;;;;;3.87;1.40;;;;;;;2.94;100.00;102160.16;7397068;19;20408;-55
2023/04/02 07:46:06;;;;;;;4.00;1.00;;;;;;;3.07;100.00;102164.75;7392187;19;20423;-55
2023/04/02 07:48:36;;;;;;;7.23;0.93;;;;;;;3.18;100.00;102175.09;7398833;19;20418;-56
2023/04/02 07:51:06;;;;;;;2.43;0.93;;;;;;;3.34;100.00;102163.00;7391436;19;20447;-54
2023/04/02 07:53:40;;;;;;;3.40;0.77;;;;;;;3.49;100.00;102175.41;7395118;19;20408;-55
2023/04/02 07:56:11;;;;;;;5.50;1.23;;;;;;;3.69;100.00;102173.81;7392451;19;20450;-55
2023/04/02 07:58:41;;;;;;;3.63;1.03;;;;;;;3.81;100.00;102184.25;7397070;19;20407;-51
2023/04/02 08:01:18;;;;;;;3.60;0.70;;;;;;;3.77;100.00;102198.38;7392922;19;20503;-54
2023/04/02 08:03:48;;;;;;;3.53;1.00;;;;;;;4.03;100.00;102189.66;7395075;19;20775;-52
2023/04/02 08:06:21;;;;;;;4.17;1.20;;;;;;;4.17;100.00;102188.38;7393842;19;20455;-52
2023/04/02 08:08:54;;;;;;;4.03;0.70;;;;;;;4.22;100.00;102189.69;7394845;19;21202;-54
2023/04/02 08:11:23;;;;;;;7.10;1.53;;;;;;;4.41;100.00;102197.34;7392175;19;20604;-56
2023/04/02 08:13:53;;;;;;;5.73;1.17;;;;;;;4.36;100.00;102213.03;7395019;19;20806;-55
2023/04/02 08:16:24;;;;;;;3.03;0.70;;;;;;;4.29;100.00;102222.69;7392726;19;20467;-52
2023/04/02 08:18:53;;;;;;;5.63;1.07;;;;;;;4.43;100.00;102238.38;7394112;19;20420;-53
2023/04/02 08:21:24;;;;;;;2.80;1.20;;;;;;;4.40;100.00;102233.88;7392315;19;21361;-53
2023/04/02 08:23:56;;;;;;;2.30;0.73;;;;;;;4.38;100.00;102237.97;7394954;19;20420;-52
2023/04/02 08:26:26;;;;;;;3.53;1.10;;;;;;;4.52;100.00;102246.00;7390827;19;20820;-54
2023/04/02 08:28:55;;;;;;;4.53;0.90;;;;;;;4.64;100.00;102254.75;7394467;19;20408;-53
2023/04/02 08:31:25;;;;;;;2.43;1.00;;;;;;;4.76;100.00;102259.19;7392280;19;20447;-51
2023/04/02 08:33:55;;;;;;;4.10;1.17;;;;;;;4.63;100.00;102263.19;7394391;19;20407;-51
2023/04/02 08:36:29;;;;;;;5.83;1.30;;;;;;;4.83;100.00;102254.72;7392876;19;20435;-55
2023/04/02 08:39:03;;;;;;;6.50;1.13;;;;;;;4.64;100.00;102254.75;7393576;19;20939;-52
2023/04/02 08:41:37;;;;;;;6.70;2.17;;;;;;;4.41;100.00;102266.34;7393091;19;20804;-50
2023/04/02 08:44:15;;;;;;;5.33;1.93;;;;;;;4.43;100.00;102277.63;7394682;19;20811;-55
2023/04/02 08:46:47;;;;;;;2.37;0.77;;;;;;;4.29;100.00;102283.13;7391175;19;20986;-55
2023/04/02 08:49:21;;;;;;;6.47;0.90;;;;;;;4.11;100.00;102298.53;7396427;19;20403;-52
2023/04/02 08:51:51;;;;;;;5.27;1.60;;;;;;;4.13;100.00;102286.84;7390281;19;20458;-52
2023/04/02 08:54:26;;;;;;;6.77;2.43;;;;;;;4.49;100.00;102276.38;7396225;19;20436;-52
2023/04/02 08:56:59;;;;;;;13.77;4.77;;;;;;;4.72;100.00;102289.59;7391905;19;20521;-51
2023/04/02 08:59:33;;;;;;;7.17;2.83;;;;;;;5.06;100.00;102288.25;7396999;19;20410;-54
2023/04/02 09:02:24;;;;;;;32.50;14.90;;;;;;;4.91;100.00;102304.03;7391314;19;20957;-55
2023/04/02 09:04:54;;;;;;;4.37;1.63;;;;;;;4.40;100.00;102328.47;7389637;19;20448;-55
2023/04/02 09:07:25;;;;;;;5.70;1.87;;;;;;;4.40;100.00;102331.00;7393581;19;20407;-52
2023/04/02 09:09:57;;;;;;;13.67;2.90;;;;;;;4.40;100.00;102333.56;7390642;19;20415;-54
2023/04/02 09:12:28;;;;;;;4.90;2.20;;;;;;;4.52;100.00;102332.91;7393472;19;20451;-50
2023/04/02 09:15:08;;;;;;;6.60;1.70;;;;;;;4.59;100.00;102335.25;7390665;19;20407;-54
2023/04/02 09:17:38;;;;;;;3.10;0.70;;;;;;;4.53;100.00;102350.03;7392391;19;20954;-50
2023/04/02 09:20:25;;;;;;;5.90;1.73;;;;;;;4.72;100.00;102366.31;7392244;19;20395;-54
2023/04/02 09:22:55;;;;;;;7.60;3.00;;;;;;;4.96;100.00;102364.19;7392663;19;20801;-56
2023/04/02 09:25:30;;;;;;;9.93;3.83;;;;;;;5.39;100.00;102362.00;7390106;19;20772;-53
2023/04/02 09:28:02;;;;;;;5.30;0.87;;;;;;;5.19;100.00;102383.28;7394503;19;20954;-51
2023/04/02 09:30:44;;;;;;;5.67;3.07;;;;;;;5.34;100.00;102400.75;7391311;19;20423;-50
2023/04/02 09:33:13;;;;;;;4.00;0.90;;;;;;;5.29;100.00;102407.13;7393156;19;20439;-52
2023/04/02 09:35:56;;;;;;;5.27;1.63;;;;;;;5.36;100.00;102404.34;7389062;19;20451;-55
2023/04/02 09:38:29;;;;;;;4.67;1.40;;;;;;;5.53;100.00;102401.63;7395292;19;20466;-54
2023/04/02 09:41:03;;;;;;;5.07;1.43;;;;;;;5.50;100.00;102405.59;7391342;19;20475;-52
2023/04/02 09:43:34;;;;;;;3.90;1.17;;;;;;;5.41;100.00;102405.66;7394994;19;20430;-52
2023/04/02 09:46:07;;;;;;;2.50;0.80;;;;;;;5.20;100.00;102394.41;7388969;19;20455;-49
2023/04/02 09:48:39;;;;;;;6.10;1.60;;;;;;;5.44;100.00;102415.28;7395656;19;20927;-51
2023/04/02 09:51:15;;;;;;;3.50;1.77;;;;;;;5.56;100.00;102415.47;7389409;19;20847;-54
2023/04/02 09:53:47;;;;;;;5.77;2.20;;;;;;;5.67;100.00;102422.44;7394216;19;20416;-48
2023/04/02 09:56:22;;;;;;;16.67;4.20;;;;;;;6.34;100.00;102417.94;7389146;19;20546;-56
2023/04/02 09:59:05;;;;;;;12.13;3.00;;;;;;;6.34;100.00;102417.94;7392335;19;20486;-52
2023/04/02 10:01:37;;;;;;;24.53;5.50;;;;;;;6.14;100.00;102431.59;7389725;19;20490;-52
2023/04/02 10:04:19;;;;;;;24.43;8.00;;;;;;;6.58;100.00;102421.72;7391811;19;20414;-49
2023/04/02 10:06:52;;;;;;;30.43;10.10;;;;;;;6.57;100.00;102427.59;7389166;19;20525;-50
2023/04/02 10:09:27;;;;;;;18.00;8.80;;;;;;;6.65;100.00;102429.94;7393812;19;20407;-50
2023/04/02 10:12:00;;;;;;;11.80;6.27;;;;;;;6.52;100.00;102434.03;7389032;19;20462;-51
2023/04/02 10:14:32;;;;;;;6.93;2.27;;;;;;;6.40;100.00;102430.41;7392312;19;20436;-55
2023/04/02 10:17:05;;;;;;;8.77;2.97;;;;;;;6.25;100.00;102422.31;7392762;19;20439;-53
2023/04/02 10:19:36;;;;;;;21.80;9.20;;;;;;;6.97;100.00;102434.31;7398487;19;20418;-52
2023/04/02 10:22:08;;;;;;;33.23;16.07;;;;;;;7.01;100.00;102442.38;7395570;19;20451;-55
2023/04/02 10:24:37;;;;;;;33.87;9.00;;;;;;;6.98;100.00;102425.84;7398257;19;20403;-50
2023/04/02 10:27:21;;;;;;;8.53;2.70;;;;;;;7.44;100.00;102433.88;7396494;19;20450;-53
2023/04/02 10:30:09;;;;;;;9.90;2.87;;;;;;;6.73;100.00;102428.91;7395580;19;20950;-54
2023/04/02 10:32:42;;;;;;;23.87;7.70;;;;;;;6.76;100.00;102449.69;7397447;19;20447;-55
2023/04/02 10:35:18;;;;;;;36.40;15.60;;;;;;;7.00;100.00;102462.78;7393831;19;21070;-55
2023/04/02 10:38:17;;;;;;;7.97;2.70;;;;;;;7.12;100.00;102468.94;7399604;19;20399;-54
2023/04/02 10:40:49;;;;;;;10.37;4.93;;;;;;;7.09;100.00;102462.66;7395686;19;20443;-50
2023/04/02 10:43:42;;;;;;;6.70;2.10;;;;;;;6.85;100.00;102442.78;7398035;19;20432;-55
2023/04/02 10:46:16;;;;;;;10.27;3.83;;;;;;;6.94;100.00;102444.31;7393704;19;20468;-55
2023/04/02 10:48:51;;;;;;;15.43;6.33;;;;;;;6.60;100.00;102425.31;7396953;19;20424;-56
2023/04/02 10:51:30;;;;;;;11.93;4.70;;;;;;;6.76;100.00;102431.72;7395864;19;20478;-55
2023/04/02 10:54:05;;;;;;;10.37;3.60;;;;;;;6.50;100.00;102409.91;7399787;19;20403;-54
2023/04/02 10:56:34;;;;;;;7.17;2.07;;;;;;;6.47;100.00;102437.88;7396675;19;20435;-55
2023/04/02 10:59:25;;;;;;;17.97;5.97;;;;;;;6.59;100.00;102441.47;7397205;19;21095;-50
2023/04/02 11:01:57;;;;;;;10.23;4.33;;;;;;;6.46;100.00;102433.50;7394502;19;20482;-55
2023/04/02 11:04:29;;;;;;;43.93;15.77;;;;;;;6.68;100.00;102430.19;7399980;19;20407;-56
2023/04/02 11:07:02;;;;;;;12.63;4.00;;;;;;;6.63;100.00;102416.97;7395120;19;20451;-54
2023/04/02 11:09:44;;;;;;;45.43;15.43;;;;;;;6.13;100.00;102386.25;7397751;19;20988;-50
2023/04/02 11:12:23;;;;;;;9.17;3.60;;;;;;;6.10;100.00;102425.31;7394104;19;20475;-56
2023/04/02 11:14:56;;;;;;;17.93;4.67;;;;;;;6.05;100.00;102437.75;7393729;19;20407;-56
2023/04/02 11:17:25;;;;;;;41.60;17.40;;;;;;;6.40;100.00;102432.97;7396122;19;20435;-52
2023/04/02 11:19:55;;;;;;;6.13;1.90;;;;;;;6.51;100.00;102432.22;7392999;19;20412;-54
2023/04/02 11:22:26;;;;;;;22.50;8.67;;;;;;;6.78;100.00;102478.94;7395945;19;21026;-55
2023/04/02 11:24:56;;;;;;;4.37;1.70;;;;;;;6.31;100.00;102474.97;7393251;19;20407;-55
2023/04/02 11:27:31;;;;;;;7.70;1.77;;;;;;;6.48;100.00;102501.19;7397018;19;20427;-52
2023/04/02 11:30:10;;;;;;;27.83;12.30;;;;;;;6.65;100.00;102501.75;7392986;19;20402;-52
2023/04/02 11:32:41;;;;;;;5.17;1.30;;;;;;;6.81;100.00;102502.28;7396163;19;20447;-52
2023/04/02 11:35:28;;;;;;;29.93;12.20;;;;;;;6.93;100.00;102473.31;7394849;19;20422;-55
2023/04/02 11:38:02;;;;;;;21.97;7.60;;;;;;;6.81;100.00;102450.97;7398128;19;20403;-54
2023/04/02 11:40:48;;;;;;;74.20;26.63;;;;;;;6.53;100.00;102453.78;7395486;19;20415;-52
2023/04/02 11:43:47;;;;;;;9.83;2.40;;;;;;;6.38;100.00;102470.38;7396261;19;20419;-56
2023/04/02 11:46:37;;;;;;;12.27;4.30;;;;;;;6.66;100.00;102480.47;7392270;19;20870;-54
2023/04/02 11:49:38;;;;;;;27.53;10.10;;;;;;;6.78;100.00;102467.78;7395283;19;20491;-52
2023/04/02 11:52:23;;;;;;;9.63;4.13;;;;;;;6.52;100.00;102472.50;7392854;19;20452;-53